Portada
METAR-TAF:

METAR-TAF

Aeroports :

Vlissingen, Països Baixos

latitud: 51-27N, longitud: 3-36E, altitud: 10 m

Observació

L'informe es va fer fa 41 minuts, a les 16:25 UTC
Vent 16 kt del Oest/Sud-Oest
Temperatura 9°C
Humitat 76%
Pressió 1014 hPa
Visibilitat 10 km o més
Cel cobert a una alçada de 3800 ft

METAR: EHFS 071625Z AUTO 24016KT 9999 OVC038 09/05 Q1014 W///H///

Hora: 18:06 (17:06 UTC)


TAF: manca

Observacions i pronòstics meteorològics de més de 4000 aeroports (METAR i TAF).

Les estacions disponibles són els punts grocs i vermells al mapa.

Posi el ratolí al punt desitjat per veure el nom de l'estació.

Feu clic per veure les observacions i els pronòstics meteorològics.

Per canviar el mapa: feu clic els botons verds amb una creu de color negre per apropar; al botó verd amb un guió per allunyar la imatge; o en les fletxes verdes per a mapes adjacents.


METAR-TAF: